Cap Maleas — P3ZA9 — position and weather

sailwx.info

Track history (hours):
 
Tides and Currents Weather Stations Pressure Air Temp Water Temp Dewpoint Dewpoint Depression Visibility Wind Speed Wind Dir Waves Ship Positions

Cap Maleas

Last reported at 2018-Jun-15 23:53 UTC. Time now 2018-Jun-21 08:45 UTC.
Position N 33°54' W 008°36'.

Length 176 m; draft 8.6 m.

Type: Ship (hazmat cat A). MMSI: 209309000.

Date/timePositionNaut miles runAvg speedWind from/ knotsBaromVisibWave heightAir tempDewpointWater temp
2018-Jun-15 23:53N 33°54' W 008°36'614.5
2018-Jun-15 23:30N 33°58' W 008°31'1115.1
2018-Jun-15 22:48N 34°05' W 008°22'17815.7
2018-Jun-15 11:31N 35°58' W 005°35'116.8
2018-Jun-15 11:28N 35°58' W 005°33'715.2
2018-Jun-15 11:00N 36°00' W 005°25'8 1.4
2018-Jun-15 05:27N 36°08' W 005°25'0 0.0
2018-Jun-15 05:00N 36°08' W 005°25'0 0.0
2018-Jun-15 04:27N 36°08' W 005°25'0 0.0
2018-Jun-15 03:57N 36°08' W 005°25'0 0.0
2018-Jun-15 03:30N 36°08' W 005°25'0 0.0
2018-Jun-15 02:57N 36°08' W 005°25'0 0.0
2018-Jun-15 02:27N 36°08' W 005°25'0 0.0
2018-Jun-15 02:00N 36°08' W 005°25'0 0.0
2018-Jun-15 01:27N 36°08' W 005°25'0 0.0
2018-Jun-15 00:57N 36°08' W 005°25'0 0.0
2018-Jun-15 00:30N 36°08' W 005°25'0 0.0
2018-Jun-15 00:00N 36°08' W 005°25'0 0.0
2018-Jun-14 23:30N 36°08' W 005°25'0 0.0
2018-Jun-14 22:51N 36°08' W 005°25'0 0.0
2018-Jun-14 21:27N 36°08' W 005°25'0 0.0
2018-Jun-14 21:00N 36°08' W 005°25'0 0.0
2018-Jun-14 20:27N 36°08' W 005°25'0 0.0
2018-Jun-14 20:00N 36°08' W 005°25'0 0.0
2018-Jun-14 19:30N 36°08' W 005°25'0 0.0
2018-Jun-14 18:36N 36°08' W 005°25'0 0.0
2018-Jun-14 18:06N 36°08' W 005°25'0 0.0
2018-Jun-14 17:51N 36°08' W 005°25'0 0.0
2018-Jun-14 16:39N 36°08' W 005°25'0 0.0
2018-Jun-14 16:30N 36°08' W 005°25'2 0.2
2018-Jun-14 06:18N 36°06' W 005°24'2 7.3
2018-Jun-14 06:00N 36°04' W 005°23'2 3.3
2018-Jun-14 05:30N 36°03' W 005°22'1 1.9
2018-Jun-14 05:00N 36°03' W 005°21'1 2.1
2018-Jun-14 04:30N 36°04' W 005°20'1 2.2
2018-Jun-14 04:00N 36°04' W 005°22'2 3.0
2018-Jun-14 03:30N 36°03' W 005°23'4 8.4
2018-Jun-14 03:00N 35°59' W 005°23'  
Track history (hours):
 
Tides and Currents Weather Stations Pressure Air Temp Water Temp Dewpoint Dewpoint Depression Visibility Wind Speed Wind Dir Waves Ship Positions

Cap Maleas

Last reported at 2018-Jun-15 23:53 UTC. Time now 2018-Jun-21 08:45 UTC.
Position N 33°54' W 008°36'.

Length 176 m; draft 8.6 m.

Type: Ship (hazmat cat A). MMSI: 209309000.

Date/timePositionNaut miles runAvg speedWind from/ knotsBaromVisibWave heightAir tempDewpointWater temp
2018-Jun-15 23:53N 33°54' W 008°36'614.5
2018-Jun-15 23:30N 33°58' W 008°31'1115.1
2018-Jun-15 22:48N 34°05' W 008°22'17815.7
2018-Jun-15 11:31N 35°58' W 005°35'116.8
2018-Jun-15 11:28N 35°58' W 005°33'715.2
2018-Jun-15 11:00N 36°00' W 005°25'8 1.4
2018-Jun-15 05:27N 36°08' W 005°25'0 0.0
2018-Jun-15 05:00N 36°08' W 005°25'0 0.0
2018-Jun-15 04:27N 36°08' W 005°25'0 0.0
2018-Jun-15 03:57N 36°08' W 005°25'0 0.0
2018-Jun-15 03:30N 36°08' W 005°25'0 0.0
2018-Jun-15 02:57N 36°08' W 005°25'0 0.0
2018-Jun-15 02:27N 36°08' W 005°25'0 0.0
2018-Jun-15 02:00N 36°08' W 005°25'0 0.0
2018-Jun-15 01:27N 36°08' W 005°25'0 0.0
2018-Jun-15 00:57N 36°08' W 005°25'0 0.0
2018-Jun-15 00:30N 36°08' W 005°25'0 0.0
2018-Jun-15 00:00N 36°08' W 005°25'0 0.0
2018-Jun-14 23:30N 36°08' W 005°25'0 0.0
2018-Jun-14 22:51N 36°08' W 005°25'0 0.0
2018-Jun-14 21:27N 36°08' W 005°25'0 0.0
2018-Jun-14 21:00N 36°08' W 005°25'0 0.0
2018-Jun-14 20:27N 36°08' W 005°25'0 0.0
2018-Jun-14 20:00N 36°08' W 005°25'0 0.0
2018-Jun-14 19:30N 36°08' W 005°25'0 0.0
2018-Jun-14 18:36N 36°08' W 005°25'0 0.0
2018-Jun-14 18:06N 36°08' W 005°25'0 0.0
2018-Jun-14 17:51N 36°08' W 005°25'0 0.0
2018-Jun-14 16:39N 36°08' W 005°25'0 0.0
2018-Jun-14 16:30N 36°08' W 005°25'2 0.2
2018-Jun-14 06:18N 36°06' W 005°24'2 7.3
2018-Jun-14 06:00N 36°04' W 005°23'2 3.3
2018-Jun-14 05:30N 36°03' W 005°22'1 1.9
2018-Jun-14 05:00N 36°03' W 005°21'1 2.1
2018-Jun-14 04:30N 36°04' W 005°20'1 2.2
2018-Jun-14 04:00N 36°04' W 005°22'2 3.0
2018-Jun-14 03:30N 36°03' W 005°23'4 8.4
2018-Jun-14 03:00N 35°59' W 005°23'  

Dump ship's entire track history